Time;durP1;ratioP1;P1;durP2;ratioP2;P2;SDS_P1;SDS_P2;PMS_P1;PMS_P2;Temp;Humidity;BMP_temperature;BMP_pressure;BME280_temperature;BME280_humidity;BME280_pressure;Samples;Min_cycle;Max_cycle;Signal;HPM_P1;HPM_P2
2022/11/03 00:01:53;;;;;;;;;;;;;;;;;;4961353;28;19919;-57
2022/11/03 00:04:19;;;;;;;;;;;;;;;;;;4957506;28;19918;-55
2022/11/03 00:06:45;;;;;;;;;;;;;;;;;;4976345;28;19922;-57
2022/11/03 00:09:12;;;;;;;;;;;;;;;;;;4966925;28;20322;-55
2022/11/03 00:11:39;;;;;;;;;;;;;;;;;;4966216;28;19926;-56
2022/11/03 00:14:04;;;;;;;;;;;;;;;;;;4991664;28;19957;-57
2022/11/03 00:16:30;;;;;;;;;;;;;;;;;;4968640;28;19954;-56
2022/11/03 00:18:55;;;;;;;;;;;;;;;;;;4967256;28;20340;-57
2022/11/03 00:21:21;;;;;;;;;;;;;;;;;;4958271;28;19922;-57
2022/11/03 00:23:46;;;;;;;;;;;;;;;;;;4969757;28;20412;-57
2022/11/03 00:26:23;;;;;;;;;;;;;;;;;;4974030;28;19975;-54
2022/11/03 00:28:52;;;;;;;;;;;;;;;;;;4969809;28;19984;-55
2022/11/03 00:31:18;;;;;;;;;;;;;;;;;;4962180;28;19926;-56
2022/11/03 00:33:44;;;;;;;;;;;;;;;;;;4965593;28;19945;-55
2022/11/03 00:36:14;;;;;;;;;;;;;;;;;;4969801;28;19968;-55
2022/11/03 00:38:40;;;;;;;;;;;;;;;;;;4967726;28;20299;-54
2022/11/03 00:41:05;;;;;;;;;;;;;;;;;;4967582;28;19926;-58
2022/11/03 00:43:32;;;;;;;;;;;;;;;;;;4960672;28;19918;-57
2022/11/03 00:45:57;;;;;;;;;;;;;;;;;;4962474;28;20398;-59
2022/11/03 00:48:28;;;;;;;;;;;;;;;;;;4965146;28;19977;-55
2022/11/03 00:51:23;;;;;;;;;;;;;;;;;;4972189;28;20005;-57
2022/11/03 00:53:55;;;;;;;;;;;;;;;;;;4990068;28;19918;-56
2022/11/03 00:56:24;;;;;;;;;;;;;;;;;;4963428;28;19930;-58
2022/11/03 00:58:50;;;;;;;;;;;;;;;;;;4962497;28;19929;-58
2022/11/03 01:01:23;;;;;;;;;;;;;;;;;;4963768;28;19930;-55
2022/11/03 01:06:50;;;;;;;;;;;;;;;;;;4963535;28;19929;-57
2022/11/03 01:09:30;;;;;;;;;;;;;;;;;;4964254;28;19918;-56
2022/11/03 01:12:12;;;;;;;;;;;;;;;;;;4964742;28;19960;-57
2022/11/03 01:14:39;;;;;;;;;;;;;;;;;;4964107;28;19918;-55
2022/11/03 01:17:09;;;;;;;;;;;;;;;;;;4961557;28;19922;-55
2022/11/03 01:19:34;;;;;;;;;;;;;;;;;;4960454;28;19941;-55
2022/11/03 01:21:59;;;;;;;;;;;;;;;;;;4963512;28;19918;-54
2022/11/03 01:24:25;;;;;;;;;;;;;;;;;;4963998;28;19972;-57
2022/11/03 01:26:50;;;;;;;;;;;;;;;;;;4979304;28;19922;-57
2022/11/03 01:29:15;;;;;;;;;;;;;;;;;;4968194;28;19932;-55
2022/11/03 01:31:41;;;;;;;;;;;;;;;;;;4969136;28;20071;-57
2022/11/03 01:34:06;;;;;;;;;;;;;;;;;;4962221;28;19922;-54
2022/11/03 01:36:31;;;;;;;;;;;;;;;;;;4960907;28;19919;-57
2022/11/03 01:38:57;;;;;;;;;;;;;;;;;;4965436;28;19926;-55
2022/11/03 01:41:25;;;;;;;;;;;;;;;;;;4963716;28;19975;-55
2022/11/03 01:44:03;;;;;;;;;;;;;;;;;;4962894;28;19918;-57
2022/11/03 01:46:29;;;;;;;;;;;;;;;;;;4958749;28;20387;-57
2022/11/03 01:49:03;;;;;;;;;;;;;;;;;;4966231;28;19925;-57
2022/11/03 01:51:29;;;;;;;;;;;;;;;;;;4966414;28;19997;-55
2022/11/03 01:53:57;;;;;;;;;;;;;;;;;;4964674;28;19918;-55
2022/11/03 01:56:22;;;;;;;;;;;;;;;;;;4960939;28;19918;-57
2022/11/03 01:58:49;;;;;;;;;;;;;;;;;;4959666;28;20411;-57
2022/11/03 02:01:15;;;;;;;;;;;;;;;;;;4965341;28;19958;-57
2022/11/03 02:03:44;;;;;;;;;;;;;;;;;;4960649;28;20004;-55
2022/11/03 02:06:09;;;;;;;;;;;;;;;;;;4961191;28;19927;-57
2022/11/03 02:08:37;;;;;;;;;;;;;;;;;;4963129;28;19925;-57
2022/11/03 02:12:05;;;;;;;;;;;;;;;;;;4975155;28;19997;-58
2022/11/03 02:13:47;;;;;;;;;;;;;;;;;;4968533;28;20315;-58
2022/11/03 02:16:13;;;;;;;;;;;;;;;;;;4967236;28;20017;-59
2022/11/03 02:18:39;;;;;;;;;;;;;;;;;;4963974;28;19972;-56
2022/11/03 02:21:07;;;;;;;;;;;;;;;;;;4962179;28;19926;-56
2022/11/03 02:23:38;;;;;;;;;;;;;;;;;;4959935;28;20013;-56
2022/11/03 02:26:05;;;;;;;;;;;;;;;;;;4962832;28;19922;-56
2022/11/03 02:28:31;;;;;;;;;;;;;;;;;;4961483;28;19919;-54
2022/11/03 02:31:12;;;;;;;;;;;;;;;;;;4970800;28;19983;-57
2022/11/03 02:33:37;;;;;;;;;;;;;;;;;;4965144;28;19964;-57
2022/11/03 02:36:10;;;;;;;;;;;;;;;;;;4961305;28;19923;-58
2022/11/03 02:38:41;;;;;;;;;;;;;;;;;;4954915;28;21771;-55
2022/11/03 02:41:07;;;;;;;;;;;;;;;;;;4967910;28;20006;-55
2022/11/03 02:43:32;;;;;;;;;;;;;;;;;;4960606;28;19919;-58
2022/11/03 02:45:58;;;;;;;;;;;;;;;;;;4968917;28;19922;-57
2022/11/03 02:48:24;;;;;;;;;;;;;;;;;;4960818;28;19919;-56
2022/11/03 02:50:49;;;;;;;;;;;;;;;;;;4971170;28;20395;-58
2022/11/03 02:53:14;;;;;;;;;;;;;;;;;;4955366;28;19961;-57
2022/11/03 02:55:45;;;;;;;;;;;;;;;;;;4955720;28;19919;-57
2022/11/03 02:58:19;;;;;;;;;;;;;;;;;;4956204;28;19918;-59
2022/11/03 03:00:59;;;;;;;;;;;;;;;;;;4957094;28;20441;-57
2022/11/03 03:03:36;;;;;;;;;;;;;;;;;;4958668;28;19926;-56
2022/11/03 03:06:05;;;;;;;;;;;;;;;;;;4964718;28;19922;-57
2022/11/03 03:08:30;;;;;;;;;;;;;;;;;;4959679;28;19941;-57
2022/11/03 03:10:59;;;;;;;;;;;;;;;;;;4958338;28;19926;-59
2022/11/03 03:13:25;;;;;;;;;;;;;;;;;;4965359;28;20005;-59
2022/11/03 03:15:56;;;;;;;;;;;;;;;;;;4958134;28;20363;-55
2022/11/03 03:18:30;;;;;;;;;;;;;;;;;;4967253;28;20287;-57
2022/11/03 03:20:59;;;;;;;;;;;;;;;;;;4967747;28;19922;-58
2022/11/03 03:23:27;;;;;;;;;;;;;;;;;;4963922;28;19922;-57
2022/11/03 03:25:57;;;;;;;;;;;;;;;;;;4967109;28;19930;-57
2022/11/03 03:28:26;;;;;;;;;;;;;;;;;;4961858;28;19926;-56
2022/11/03 03:30:53;;;;;;;;;;;;;;;;;;4965250;28;19922;-58
2022/11/03 03:33:19;;;;;;;;;;;;;;;;;;4964033;28;19922;-56
2022/11/03 03:35:46;;;;;;;;;;;;;;;;;;4963801;28;19919;-59
2022/11/03 03:38:18;;;;;;;;;;;;;;;;;;4961399;28;19991;-59
2022/11/03 03:40:46;;;;;;;;;;;;;;;;;;4963025;28;20003;-56
2022/11/03 03:43:13;;;;;;;;;;;;;;;;;;4960157;28;20892;-55
2022/11/03 03:45:39;;;;;;;;;;;;;;;;;;4963012;28;20039;-58
2022/11/03 03:48:05;;;;;;;;;;;;;;;;;;4961604;28;19918;-56
2022/11/03 03:50:33;;;;;;;;;;;;;;;;;;4959380;28;19926;-59
2022/11/03 03:53:02;;;;;;;;;;;;;;;;;;4970548;28;20017;-56
2022/11/03 03:55:47;;;;;;;;;;;;;;;;;;4974592;28;19975;-59
2022/11/03 03:58:13;;;;;;;;;;;;;;;;;;4961379;28;20563;-59
2022/11/03 04:00:38;;;;;;;;;;;;;;;;;;4962393;28;19914;-57
2022/11/03 04:03:04;;;;;;;;;;;;;;;;;;4976159;28;19940;-59
2022/11/03 04:05:29;;;;;;;;;;;;;;;;;;4972865;28;19922;-56
2022/11/03 04:07:55;;;;;;;;;;;;;;;;;;4966540;28;19922;-58
2022/11/03 04:10:21;;;;;;;;;;;;;;;;;;4966332;28;20392;-59
2022/11/03 04:23:43;;;;;;;;;;;;;;;;;;4956418;28;19926;-57
2022/11/03 04:26:10;;;;;;;;;;;;;;;;;;4966401;28;19918;-57
2022/11/03 04:28:36;;;;;;;;;;;;;;;;;;4962078;28;19972;-59
2022/11/03 04:31:01;;;;;;;;;;;;;;;;;;4963835;28;19914;-56
2022/11/03 04:33:27;;;;;;;;;;;;;;;;;;4956011;28;19923;-58
2022/11/03 04:35:54;;;;;;;;;;;;;;;;;;4959637;28;19993;-57
2022/11/03 04:38:22;;;;;;;;;;;;;;;;;;4961337;28;20351;-58
2022/11/03 04:40:54;;;;;;;;;;;;;;;;;;4955387;28;19923;-55
2022/11/03 04:43:21;;;;;;;;;;;;;;;;;;4958252;28;19914;-56
2022/11/03 04:45:47;;;;;;;;;;;;;;;;;;4962520;28;19953;-59
2022/11/03 04:48:22;;;;;;;;;;;;;;;;;;4959956;28;19914;-59
2022/11/03 04:50:48;;;;;;;;;;;;;;;;;;4958214;28;20363;-55
2022/11/03 04:53:15;;;;;;;;;;;;;;;;;;4965606;28;19960;-58
2022/11/03 04:55:40;;;;;;;;;;;;;;;;;;4961767;28;20009;-56
2022/11/03 04:58:12;;;;;;;;;;;;;;;;;;4954289;28;20017;-56
2022/11/03 05:00:38;;;;;;;;;;;;;;;;;;4957650;28;19918;-59
2022/11/03 05:03:03;;;;;;;;;;;;;;;;;;4957873;28;19921;-59
2022/11/03 05:05:28;;;;;;;;;;;;;;;;;;4960412;28;19918;-56
2022/11/03 05:07:55;;;;;;;;;;;;;;;;;;4960555;28;19922;-59
2022/11/03 05:10:23;;;;;;;;;;;;;;;;;;4970106;28;20521;-58
2022/11/03 05:12:49;;;;;;;;;;;;;;;;;;4960168;28;19926;-58
2022/11/03 05:15:40;;;;;;;;;;;;;;;;;;4968214;28;19953;-55
2022/11/03 05:18:13;;;;;;;;;;;;;;;;;;4973087;28;19971;-56
2022/11/03 05:20:41;;;;;;;;;;;;;;;;;;4963993;28;19918;-56
2022/11/03 05:23:09;;;;;;;;;;;;;;;;;;4966264;28;19925;-59
2022/11/03 05:25:40;;;;;;;;;;;;;;;;;;4971439;28;19922;-59
2022/11/03 05:28:25;;;;;;;;;;;;;;;;;;4963514;28;19918;-59
2022/11/03 05:30:50;;;;;;;;;;;;;;;;;;4974686;28;20422;-57
2022/11/03 05:33:28;;;;;;;;;;;;;;;;;;4972402;28;19922;-59
2022/11/03 05:35:54;;;;;;;;;;;;;;;;;;4965478;28;19948;-56
2022/11/03 05:38:20;;;;;;;;;;;;;;;;;;4970771;28;20135;-58
2022/11/03 05:40:48;;;;;;;;;;;;;;;;;;4966291;28;19919;-58
2022/11/03 05:43:13;;;;;;;;;;;;;;;;;;4971705;28;19924;-57
2022/11/03 05:45:39;;;;;;;;;;;;;;;;;;4967950;28;19923;-56
2022/11/03 05:48:10;;;;;;;;;;;;;;;;;;4960544;28;19914;-58
2022/11/03 05:50:35;;;;;;;;;;;;;;;;;;4963094;28;19918;-57
2022/11/03 05:53:03;;;;;;;;;;;;;;;;;;4963873;28;19914;-58
2022/11/03 05:55:30;;;;;;;;;;;;;;;;;;4964139;28;19918;-57
2022/11/03 05:57:57;;;;;;;;;;;;;;;;;;4964091;28;20360;-58
2022/11/03 06:00:30;;;;;;;;;;;;;;;;;;4959787;28;19914;-59
2022/11/03 06:02:57;;;;;;;;;;;;;;;;;;4971082;28;19918;-58
2022/11/03 06:05:23;;;;;;;;;;;;;;;;;;4965735;28;19964;-56
2022/11/03 06:07:49;;;;;;;;;;;;;;;;;;4965176;28;19918;-62
2022/11/03 06:10:25;;;;;;;;;;;;;;;;;;4964963;28;19914;-59
2022/11/03 06:12:53;;;;;;;;;;;;;;;;;;4971151;28;20310;-59
2022/11/03 06:15:27;;;;;;;;;;;;;;;;;;4973055;28;20261;-61
2022/11/03 06:17:52;;;;;;;;;;;;;;;;;;4972825;28;20414;-59
2022/11/03 06:20:20;;;;;;;;;;;;;;;;;;4968600;28;19921;-59
2022/11/03 06:22:47;;;;;;;;;;;;;;;;;;4970567;28;19918;-60
2022/11/03 06:25:12;;;;;;;;;;;;;;;;;;4977506;28;19918;-61
2022/11/03 06:27:37;;;;;;;;;;;;;;;;;;4971735;28;19929;-62
2022/11/03 06:30:29;;;;;;;;;;;;;;;;;;4971762;28;19963;-60
2022/11/03 06:32:57;;;;;;;;;;;;;;;;;;4976182;28;20497;-59
2022/11/03 06:35:22;;;;;;;;;;;;;;;;;;4973311;28;19918;-61
2022/11/03 06:37:48;;;;;;;;;;;;;;;;;;4973018;28;19924;-60
2022/11/03 06:40:14;;;;;;;;;;;;;;;;;;4969204;28;19925;-61
2022/11/03 06:42:39;;;;;;;;;;;;;;;;;;4972378;28;19914;-59
2022/11/03 06:45:13;;;;;;;;;;;;;;;;;;4970719;28;19918;-60
2022/11/03 06:47:39;;;;;;;;;;;;;;;;;;4983772;28;20310;-61
2022/11/03 06:50:18;;;;;;;;;;;;;;;;;;4972942;28;20054;-59
2022/11/03 06:52:46;;;;;;;;;;;;;;;;;;4973986;28;19925;-60
2022/11/03 06:55:12;;;;;;;;;;;;;;;;;;4969078;28;20456;-61
2022/11/03 06:57:38;;;;;;;;;;;;;;;;;;4964408;28;19960;-59
2022/11/03 07:00:12;;;;;;;;;;;;;;;;;;4971389;28;19918;-59
2022/11/03 07:02:51;;;;;;;;;;;;;;;;;;4967007;28;19914;-60
2022/11/03 07:05:19;;;;;;;;;;;;;;;;;;4969389;28;19927;-61
2022/11/03 07:07:45;;;;;;;;;;;;;;;;;;4969493;28;19917;-59
2022/11/03 07:10:10;;;;;;;;;;;;;;;;;;4968459;28;19918;-59
2022/11/03 07:12:35;;;;;;;;;;;;;;;;;;4969855;28;20482;-60
2022/11/03 07:15:01;;;;;;;;;;;;;;;;;;4968295;28;19918;-59
2022/11/03 07:17:27;;;;;;;;;;;;;;;;;;4967707;28;19934;-59
2022/11/03 07:19:52;;;;;;;;;;;;;;;;;;4971315;28;19920;-58
2022/11/03 07:22:19;;;;;;;;;;;;;;;;;;4964896;28;19918;-61
2022/11/03 07:24:45;;;;;;;;;;;;;;;;;;4975397;28;19941;-60
2022/11/03 07:27:11;;;;;;;;;;;;;;;;;;4970810;28;20400;-62
2022/11/03 07:29:36;;;;;;;;;;;;;;;;;;4977256;28;19922;-59
2022/11/03 07:32:04;;;;;;;;;;;;;;;;;;4971569;28;19971;-61
2022/11/03 07:34:32;;;;;;;;;;;;;;;;;;4972905;28;19964;-59
2022/11/03 07:36:57;;;;;;;;;;;;;;;;;;4971598;28;19922;-61
2022/11/03 07:39:23;;;;;;;;;;;;;;;;;;4971733;28;20327;-60
2022/11/03 07:41:48;;;;;;;;;;;;;;;;;;4966028;28;20380;-59
2022/11/03 07:44:21;;;;;;;;;;;;;;;;;;4969978;28;19947;-61
2022/11/03 07:46:48;;;;;;;;;;;;;;;;;;4978663;28;20020;-62
2022/11/03 07:49:26;;;;;;;;;;;;;;;;;;4974774;28;20021;-61
2022/11/03 07:51:52;;;;;;;;;;;;;;;;;;4972165;28;20380;-59
2022/11/03 07:54:22;;;;;;;;;;;;;;;;;;4973688;28;19922;-60
2022/11/03 07:56:53;;;;;;;;;;;;;;;;;;4973885;28;19918;-59
2022/11/03 07:59:20;;;;;;;;;;;;;;;;;;4963784;28;19918;-61
2022/11/03 08:02:08;;;;;;;;;;;;;;;;;;4967134;28;19959;-60
2022/11/03 08:04:34;;;;;;;;;;;;;;;;;;4969705;28;20411;-61
2022/11/03 08:06:59;;;;;;;;;;;;;;;;;;4968931;28;19922;-59
2022/11/03 08:09:25;;;;;;;;;;;;;;;;;;4964501;28;19921;-59
2022/11/03 08:11:50;;;;;;;;;;;;;;;;;;4967042;28;19922;-59
2022/11/03 08:14:16;;;;;;;;;;;;;;;;;;4968473;28;20025;-61
2022/11/03 08:16:41;;;;;;;;;;;;;;;;;;4974533;28;20321;-62
2022/11/03 08:19:07;;;;;;;;;;;;;;;;;;4971694;28;19983;-58
2022/11/03 08:21:32;;;;;;;;;;;;;;;;;;4976065;28;19914;-60
2022/11/03 08:23:57;;;;;;;;;;;;;;;;;;4963269;28;19961;-60
2022/11/03 08:26:23;;;;;;;;;;;;;;;;;;4964644;28;20559;-59
2022/11/03 08:28:48;;;;;;;;;;;;;;;;;;4958331;28;19924;-60
2022/11/03 08:31:13;;;;;;;;;;;;;;;;;;4958278;28;20307;-61
2022/11/03 08:33:39;;;;;;;;;;;;;;;;;;4966685;28;19968;-60
2022/11/03 08:36:04;;;;;;;;;;;;;;;;;;4965263;28;19953;-59
2022/11/03 08:38:29;;;;;;;;;;;;;;;;;;4963987;28;20410;-59
2022/11/03 08:40:55;;;;;;;;;;;;;;;;;;4964413;28;20342;-61
2022/11/03 08:43:21;;;;;;;;;;;;;;;;;;4964636;28;19949;-61
2022/11/03 08:45:46;;;;;;;;;;;;;;;;;;4966631;28;19925;-60
2022/11/03 08:48:11;;;;;;;;;;;;;;;;;;4967670;28;19914;-59
2022/11/03 08:50:37;;;;;;;;;;;;;;;;;;4967363;28;19918;-60
2022/11/03 08:53:02;;;;;;;;;;;;;;;;;;4975971;28;20429;-61
2022/11/03 08:55:27;;;;;;;;;;;;;;;;;;4976478;28;20380;-61
2022/11/03 08:57:53;;;;;;;;;;;;;;;;;;4976466;28;19922;-61
2022/11/03 09:00:18;;;;;;;;;;;;;;;;;;4971105;28;20056;-60
2022/11/03 09:02:43;;;;;;;;;;;;;;;;;;4971167;28;19976;-61
2022/11/03 09:05:09;;;;;;;;;;;;;;;;;;4969175;28;19918;-61
2022/11/03 09:07:35;;;;;;;;;;;;;;;;;;4972349;28;19929;-62
2022/11/03 09:10:00;;;;;;;;;;;;;;;;;;4970020;28;19929;-60
2022/11/03 09:12:25;;;;;;;;;;;;;;;;;;4971793;28;19925;-57
2022/11/03 09:14:50;;;;;;;;;;;;;;;;;;4967695;28;20009;-58
2022/11/03 09:17:16;;;;;;;;;;;;;;;;;;4977071;28;19922;-60
2022/11/03 09:19:41;;;;;;;;;;;;;;;;;;4980192;28;19949;-57
2022/11/03 09:22:06;;;;;;;;;;;;;;;;;;4971174;28;20419;-58
2022/11/03 09:24:31;;;;;;;;;;;;;;;;;;4971995;28;19968;-58
2022/11/03 09:26:57;;;;;;;;;;;;;;;;;;4971125;28;19983;-60
2022/11/03 09:29:22;;;;;;;;;;;;;;;;;;4975251;28;19918;-57
2022/11/03 09:31:47;;;;;;;;;;;;;;;;;;4969259;28;19918;-59
2022/11/03 09:34:13;;;;;;;;;;;;;;;;;;4973524;28;20300;-59
2022/11/03 09:36:38;;;;;;;;;;;;;;;;;;4969580;28;19919;-61
2022/11/03 09:39:04;;;;;;;;;;;;;;;;;;4969005;28;20601;-61
2022/11/03 09:41:29;;;;;;;;;;;;;;;;;;4984664;28;19918;-60
2022/11/03 09:43:56;;;;;;;;;;;;;;;;;;4976128;28;19922;-60
2022/11/03 09:46:21;;;;;;;;;;;;;;;;;;4970902;28;19922;-59
2022/11/03 09:48:47;;;;;;;;;;;;;;;;;;4968325;28;19922;-57
2022/11/03 09:51:15;;;;;;;;;;;;;;;;;;4972073;28;20407;-61
2022/11/03 09:53:40;;;;;;;;;;;;;;;;;;4969653;28;19925;-60
2022/11/03 09:56:08;;;;;;;;;;;;;;;;;;4973242;28;19921;-62
2022/11/03 09:58:34;;;;;;;;;;;;;;;;;;4965344;28;19930;-59
2022/11/03 10:00:59;;;;;;;;;;;;;;;;;;4972079;28;19918;-59
2022/11/03 10:03:25;;;;;;;;;;;;;;;;;;4968438;28;20343;-58
2022/11/03 10:05:50;;;;;;;;;;;;;;;;;;4964759;28;20394;-58
2022/11/03 10:08:21;;;;;;;;;;;;;;;;;;4968451;28;19945;-60
2022/11/03 10:10:46;;;;;;;;;;;;;;;;;;4972829;28;20013;-57
2022/11/03 10:13:16;;;;;;;;;;;;;;;;;;4968501;28;20363;-60
2022/11/03 10:15:42;;;;;;;;;;;;;;;;;;4964933;28;19925;-58
2022/11/03 10:18:07;;;;;;;;;;;;;;;;;;4965163;28;19922;-59
2022/11/03 10:20:33;;;;;;;;;;;;;;;;;;4962212;28;19922;-62
2022/11/03 10:22:58;;;;;;;;;;;;;;;;;;4969161;28;20383;-60
2022/11/03 10:25:26;;;;;;;;;;;;;;;;;;4971577;28;20292;-60
2022/11/03 10:27:52;;;;;;;;;;;;;;;;;;4972565;28;19922;-62
2022/11/03 10:30:17;;;;;;;;;;;;;;;;;;4970958;28;19929;-61
2022/11/03 10:32:42;;;;;;;;;;;;;;;;;;4970840;28;20379;-60
2022/11/03 10:35:26;;;;;;;;;;;;;;;;;;4970457;28;19919;-59
2022/11/03 10:37:51;;;;;;;;;;;;;;;;;;4968233;28;19968;-58
2022/11/03 10:40:32;;;;;;;;;;;;;;;;;;4978001;28;19921;-58
2022/11/03 10:42:58;;;;;;;;;;;;;;;;;;4973756;28;19962;-60
2022/11/03 10:45:23;;;;;;;;;;;;;;;;;;4970814;28;20339;-60
2022/11/03 10:47:59;;;;;;;;;;;;;;;;;;4972782;28;19943;-62
2022/11/03 10:50:25;;;;;;;;;;;;;;;;;;4968665;28;19925;-59
2022/11/03 10:52:50;;;;;;;;;;;;;;;;;;4956039;28;19918;-61
2022/11/03 10:55:17;;;;;;;;;;;;;;;;;;4957642;28;19914;-60
2022/11/03 10:57:42;;;;;;;;;;;;;;;;;;4966023;28;20368;-62
2022/11/03 11:00:17;;;;;;;;;;;;;;;;;;4968544;28;19926;-62
2022/11/03 11:02:43;;;;;;;;;;;;;;;;;;4969465;28;20398;-59
2022/11/03 11:05:13;;;;;;;;;;;;;;;;;;4971172;28;20028;-60
2022/11/03 11:07:40;;;;;;;;;;;;;;;;;;4964831;28;19923;-62
2022/11/03 11:10:05;;;;;;;;;;;;;;;;;;4967071;28;19918;-62
2022/11/03 11:12:31;;;;;;;;;;;;;;;;;;4966627;28;19925;-60
2022/11/03 11:14:57;;;;;;;;;;;;;;;;;;4968525;28;20219;-60
2022/11/03 11:17:39;;;;;;;;;;;;;;;;;;4963441;28;19922;-61
2022/11/03 11:20:23;;;;;;;;;;;;;;;;;;4966899;28;19926;-60
2022/11/03 11:22:48;;;;;;;;;;;;;;;;;;4967990;28;20049;-57
2022/11/03 11:25:14;;;;;;;;;;;;;;;;;;4977390;28;19959;-60
2022/11/03 11:27:39;;;;;;;;;;;;;;;;;;4976988;28;19922;-60
2022/11/03 11:30:06;;;;;;;;;;;;;;;;;;4976364;28;19918;-60
2022/11/03 11:32:37;;;;;;;;;;;;;;;;;;4973525;28;20372;-60
2022/11/03 11:35:03;;;;;;;;;;;;;;;;;;4971798;28;20402;-61
2022/11/03 11:37:28;;;;;;;;;;;;;;;;;;4974213;28;19918;-62
2022/11/03 11:39:53;;;;;;;;;;;;;;;;;;4979072;28;19926;-60
2022/11/03 11:42:19;;;;;;;;;;;;;;;;;;4972877;28;19918;-61
2022/11/03 11:44:45;;;;;;;;;;;;;;;;;;4976662;28;20383;-60
2022/11/03 11:47:23;;;;;;;;;;;;;;;;;;4973033;28;19971;-60
2022/11/03 11:50:09;;;;;;;;;;;;;;;;;;4970984;28;20276;-60
2022/11/03 11:52:40;;;;;;;;;;;;;;;;;;4971511;28;19922;-60
2022/11/03 11:55:12;;;;;;;;;;;;;;;;;;4970943;28;19914;-60
2022/11/03 11:57:37;;;;;;;;;;;;;;;;;;4975453;28;19918;-61
2022/11/03 12:00:04;;;;;;;;;;;;;;;;;;4968485;28;20313;-60
2022/11/03 12:02:30;;;;;;;;;;;;;;;;;;4972665;28;20333;-60
2022/11/03 12:05:01;;;;;;;;;;;;;;;;;;4969498;28;19924;-60
2022/11/03 12:07:33;;;;;;;;;;;;;;;;;;4966965;28;19918;-61
2022/11/03 12:10:08;;;;;;;;;;;;;;;;;;4959509;28;19918;-61
2022/11/03 12:12:34;;;;;;;;;;;;;;;;;;4955695;28;19966;-60
2022/11/03 12:14:59;;;;;;;;;;;;;;;;;;4965857;28;20330;-61
2022/11/03 12:17:24;;;;;;;;;;;;;;;;;;4965056;28;19960;-60
2022/11/03 12:19:51;;;;;;;;;;;;;;;;;;4965434;28;19914;-61
2022/11/03 12:22:22;;;;;;;;;;;;;;;;;;4964317;28;19914;-59
2022/11/03 12:24:49;;;;;;;;;;;;;;;;;;4961670;28;19936;-59
2022/11/03 12:27:34;;;;;;;;;;;;;;;;;;4968101;28;19922;-58
2022/11/03 12:30:03;;;;;;;;;;;;;;;;;;4975846;28;20411;-61
2022/11/03 12:32:29;;;;;;;;;;;;;;;;;;4963407;28;19968;-58
2022/11/03 12:34:55;;;;;;;;;;;;;;;;;;4970695;28;19918;-60
2022/11/03 12:37:20;;;;;;;;;;;;;;;;;;4969660;28;19971;-60
2022/11/03 12:39:46;;;;;;;;;;;;;;;;;;4969241;28;19925;-59
2022/11/03 12:42:11;;;;;;;;;;;;;;;;;;4959892;28;19921;-60
2022/11/03 12:44:36;;;;;;;;;;;;;;;;;;4962181;28;19922;-59
2022/11/03 12:47:01;;;;;;;;;;;;;;;;;;4962617;28;19922;-59
2022/11/03 12:49:27;;;;;;;;;;;;;;;;;;4964555;28;19922;-58
2022/11/03 12:51:52;;;;;;;;;;;;;;;;;;4975668;28;19914;-58
2022/11/03 12:54:17;;;;;;;;;;;;;;;;;;4978909;28;20349;-60
2022/11/03 12:56:43;;;;;;;;;;;;;;;;;;4967711;28;19917;-60
2022/11/03 12:59:08;;;;;;;;;;;;;;;;;;4967300;28;19922;-61
2022/11/03 13:01:33;;;;;;;;;;;;;;;;;;4975411;28;19914;-59
2022/11/03 13:03:59;;;;;;;;;;;;;;;;;;4969966;28;20369;-61
2022/11/03 13:06:24;;;;;;;;;;;;;;;;;;4974504;28;19922;-61
2022/11/03 13:08:50;;;;;;;;;;;;;;;;;;4968904;28;19941;-59
2022/11/03 13:13:59;;;;;;;;;;;;;;;;;;4969322;28;20025;-60
2022/11/03 13:16:24;;;;;;;;;;;;;;;;;;4970071;28;20020;-60
2022/11/03 13:18:50;;;;;;;;;;;;;;;;;;4971334;28;20022;-61
2022/11/03 13:21:15;;;;;;;;;;;;;;;;;;4969674;28;19922;-59
2022/11/03 13:23:41;;;;;;;;;;;;;;;;;;4956857;28;19946;-61
2022/11/03 13:26:06;;;;;;;;;;;;;;;;;;4963734;28;19922;-60
2022/11/03 13:28:31;;;;;;;;;;;;;;;;;;4963454;28;19914;-60
2022/11/03 13:30:57;;;;;;;;;;;;;;;;;;4969924;28;20020;-59
2022/11/03 13:33:22;;;;;;;;;;;;;;;;;;4961288;28;20391;-61
2022/11/03 13:35:47;;;;;;;;;;;;;;;;;;4965670;28;19953;-61
2022/11/03 13:38:12;;;;;;;;;;;;;;;;;;4965992;28;20012;-60
2022/11/03 13:40:38;;;;;;;;;;;;;;;;;;4968501;28;19923;-61
2022/11/03 13:43:03;;;;;;;;;;;;;;;;;;4964122;28;19915;-59
2022/11/03 13:45:28;;;;;;;;;;;;;;;;;;4962336;28;19919;-60
2022/11/03 13:47:53;;;;;;;;;;;;;;;;;;4969357;28;19937;-59
2022/11/03 13:50:19;;;;;;;;;;;;;;;;;;4966387;28;19918;-59
2022/11/03 13:52:44;;;;;;;;;;;;;;;;;;4969859;28;20334;-60
2022/11/03 13:55:10;;;;;;;;;;;;;;;;;;4970071;28;19918;-59
2022/11/03 13:57:35;;;;;;;;;;;;;;;;;;4971370;28;20366;-59
2022/11/03 14:00:03;;;;;;;;;;;;;;;;;;4971382;28;19952;-59
2022/11/03 14:02:29;;;;;;;;;;;;;;;;;;4971009;28;19922;-59
2022/11/03 14:04:54;;;;;;;;;;;;;;;;;;4971937;28;19918;-59
2022/11/03 14:07:19;;;;;;;;;;;;;;;;;;4975130;28;19957;-60
2022/11/03 14:09:44;;;;;;;;;;;;;;;;;;4978014;28;19918;-60
2022/11/03 14:14:53;;;;;;;;;;;;;;;;;;4972789;28;19933;-59
2022/11/03 14:17:19;;;;;;;;;;;;;;;;;;4974442;28;19933;-59
2022/11/03 14:19:44;;;;;;;;;;;;;;;;;;4968555;28;19925;-59
2022/11/03 14:22:09;;;;;;;;;;;;;;;;;;4976795;28;19914;-60
2022/11/03 14:24:34;;;;;;;;;;;;;;;;;;4962639;28;20368;-60
2022/11/03 14:27:00;;;;;;;;;;;;;;;;;;4966544;28;19977;-59
2022/11/03 14:29:25;;;;;;;;;;;;;;;;;;4965915;28;19914;-61
2022/11/03 14:31:51;;;;;;;;;;;;;;;;;;4967418;28;19922;-60
2022/11/03 14:34:16;;;;;;;;;;;;;;;;;;4960366;28;19919;-61
2022/11/03 14:36:41;;;;;;;;;;;;;;;;;;4964288;28;21020;-59
2022/11/03 14:39:07;;;;;;;;;;;;;;;;;;4970702;28;19926;-61
2022/11/03 14:44:16;;;;;;;;;;;;;;;;;;4962145;28;20008;-61
2022/11/03 14:46:41;;;;;;;;;;;;;;;;;;4961701;28;20017;-59
2022/11/03 14:49:07;;;;;;;;;;;;;;;;;;4966877;28;19922;-59
2022/11/03 14:51:33;;;;;;;;;;;;;;;;;;4960709;28;19914;-59
2022/11/03 14:53:58;;;;;;;;;;;;;;;;;;4965037;28;19925;-60
2022/11/03 14:56:24;;;;;;;;;;;;;;;;;;4964269;28;20389;-60
2022/11/03 14:58:49;;;;;;;;;;;;;;;;;;4961711;28;19918;-60
2022/11/03 15:01:15;;;;;;;;;;;;;;;;;;4972679;28;19925;-59
2022/11/03 15:03:40;;;;;;;;;;;;;;;;;;4968250;28;19953;-60
2022/11/03 15:06:07;;;;;;;;;;;;;;;;;;4964995;28;19976;-59
2022/11/03 15:08:32;;;;;;;;;;;;;;;;;;4969975;28;19937;-60
2022/11/03 15:10:57;;;;;;;;;;;;;;;;;;4968807;28;20391;-58
2022/11/03 15:13:23;;;;;;;;;;;;;;;;;;4963525;28;19918;-59
2022/11/03 15:15:48;;;;;;;;;;;;;;;;;;4964763;28;19953;-60
2022/11/03 15:18:13;;;;;;;;;;;;;;;;;;4964704;28;19918;-59
2022/11/03 15:20:38;;;;;;;;;;;;;;;;;;4960714;28;20579;-58
2022/11/03 15:23:04;;;;;;;;;;;;;;;;;;4973735;28;20013;-59
2022/11/03 15:25:30;;;;;;;;;;;;;;;;;;4972741;28;19964;-59
2022/11/03 15:27:55;;;;;;;;;;;;;;;;;;4971785;28;19950;-60
2022/11/03 15:30:21;;;;;;;;;;;;;;;;;;4967597;28;19972;-60
2022/11/03 15:32:46;;;;;;;;;;;;;;;;;;4964258;28;19922;-58
2022/11/03 15:35:11;;;;;;;;;;;;;;;;;;4965844;28;20290;-60
2022/11/03 15:37:37;;;;;;;;;;;;;;;;;;4965995;28;19914;-61
2022/11/03 15:40:03;;;;;;;;;;;;;;;;;;4967454;28;19914;-60
2022/11/03 15:42:28;;;;;;;;;;;;;;;;;;4967474;28;19918;-60
2022/11/03 15:44:53;;;;;;;;;;;;;;;;;;4975584;28;20483;-59
2022/11/03 15:47:19;;;;;;;;;;;;;;;;;;4984003;28;19970;-59
2022/11/03 15:49:44;;;;;;;;;;;;;;;;;;4969658;28;20395;-60
2022/11/03 15:52:09;;;;;;;;;;;;;;;;;;4977805;28;19914;-59
2022/11/03 15:54:34;;;;;;;;;;;;;;;;;;4968097;28;20406;-59
2022/11/03 15:57:00;;;;;;;;;;;;;;;;;;4969112;28;20384;-59
2022/11/03 15:59:25;;;;;;;;;;;;;;;;;;4965156;28;20415;-61
2022/11/03 16:01:50;;;;;;;;;;;;;;;;;;4968212;28;19929;-59
2022/11/03 16:04:16;;;;;;;;;;;;;;;;;;4966602;28;19918;-59
2022/11/03 16:06:41;;;;;;;;;;;;;;;;;;4963391;28;20399;-59
2022/11/03 16:09:07;;;;;;;;;;;;;;;;;;4967637;28;20322;-61
2022/11/03 16:11:32;;;;;;;;;;;;;;;;;;4964133;28;19914;-59
2022/11/03 16:13:58;;;;;;;;;;;;;;;;;;4963615;28;19988;-59
2022/11/03 16:16:24;;;;;;;;;;;;;;;;;;4960491;28;19973;-59
2022/11/03 16:18:49;;;;;;;;;;;;;;;;;;4966041;28;19942;-59
2022/11/03 16:21:14;;;;;;;;;;;;;;;;;;4965651;28;20005;-60
2022/11/03 16:23:40;;;;;;;;;;;;;;;;;;4969665;28;19917;-58
2022/11/03 16:26:07;;;;;;;;;;;;;;;;;;4971982;28;19961;-59
2022/11/03 16:28:33;;;;;;;;;;;;;;;;;;4975185;28;19944;-59
2022/11/03 16:30:58;;;;;;;;;;;;;;;;;;4967736;28;19925;-61
2022/11/03 16:33:23;;;;;;;;;;;;;;;;;;4971583;28;19968;-60
2022/11/03 16:35:48;;;;;;;;;;;;;;;;;;4971700;28;19915;-58
2022/11/03 16:38:14;;;;;;;;;;;;;;;;;;4975994;28;19940;-60
2022/11/03 16:40:39;;;;;;;;;;;;;;;;;;4972875;28;19996;-61
2022/11/03 16:43:05;;;;;;;;;;;;;;;;;;4971509;28;20035;-60
2022/11/03 16:45:30;;;;;;;;;;;;;;;;;;4967827;28;19963;-59
2022/11/03 16:47:55;;;;;;;;;;;;;;;;;;4990802;28;20432;-59
2022/11/03 16:50:20;;;;;;;;;;;;;;;;;;4972434;28;19922;-61
2022/11/03 16:52:46;;;;;;;;;;;;;;;;;;4963333;28;20428;-60
2022/11/03 16:55:13;;;;;;;;;;;;;;;;;;4964800;28;19929;-59
2022/11/03 16:57:39;;;;;;;;;;;;;;;;;;4954879;28;20018;-59
2022/11/03 17:00:05;;;;;;;;;;;;;;;;;;4954425;28;20598;-58
2022/11/03 17:02:30;;;;;;;;;;;;;;;;;;4964743;28;20551;-60
2022/11/03 17:04:56;;;;;;;;;;;;;;;;;;4961957;28;19918;-60
2022/11/03 17:07:21;;;;;;;;;;;;;;;;;;4961921;28;19922;-58
2022/11/03 17:09:46;;;;;;;;;;;;;;;;;;4968631;28;20421;-58